Time;durP1;ratioP1;P1;durP2;ratioP2;P2;SDS_P1;SDS_P2;PMS_P1;PMS_P2;Temp;Humidity;BMP_temperature;BMP_pressure;BME280_temperature;BME280_humidity;BME280_pressure;Samples;Min_cycle;Max_cycle;Signal;HPM_P1;HPM_P2
2022/04/25 00:00:00;;;;;;;12.23;5.18;;;;;;;;;;5075632;28;20017;-41
2022/04/25 00:02:26;;;;;;;18.73;5.63;;;;;;;;;;5075582;28;20074;-41
2022/04/25 00:04:51;;;;;;;15.32;4.78;;;;;;;;;;5091209;28;20089;-41
2022/04/25 00:07:16;;;;;;;13.07;5.22;;;;;;;;;;5075693;28;20111;-41
2022/04/25 00:09:42;;;;;;;13.25;5.70;;;;;;;;;;5075537;28;20024;-41
2022/04/25 00:12:07;;;;;;;12.25;5.57;;;;;;;;;;5075631;28;20020;-41
2022/04/25 00:14:33;;;;;;;15.27;6.35;;;;;;;;;;5075271;28;20047;-41
2022/04/25 00:16:58;;;;;;;11.30;5.60;;;;;;;;;;5074799;28;20055;-41
2022/04/25 00:19:24;;;;;;;17.50;5.95;;;;;;;;;;5080231;28;20050;-41
2022/04/25 00:21:51;;;;;;;19.17;6.03;;;;;;;;;;5095659;28;20020;-41
2022/04/25 00:24:16;;;;;;;13.15;5.35;;;;;;;;;;5095423;28;20067;-41
2022/04/25 00:26:41;;;;;;;13.60;4.93;;;;;;;;;;5095486;28;20454;-41
2022/04/25 00:29:07;;;;;;;12.00;5.28;;;;;;;;;;5095475;28;20012;-41
2022/04/25 00:31:32;;;;;;;14.32;4.88;;;;;;;;;;5095196;28;20021;-41
2022/04/25 00:33:57;;;;;;;9.70;4.80;;;;;;;;;;5095291;28;20020;-41
2022/04/25 00:36:22;;;;;;;15.35;4.97;;;;;;;;;;5095423;28;20038;-41
2022/04/25 00:38:48;;;;;;;10.73;4.40;;;;;;;;;;5095180;28;20465;-41
2022/04/25 00:41:13;;;;;;;12.50;4.13;;;;;;;;;;5095290;28;20027;-41
2022/04/25 00:43:38;;;;;;;11.10;3.85;;;;;;;;;;5094871;28;20111;-41
2022/04/25 00:46:04;;;;;;;10.55;4.85;;;;;;;;;;5094939;28;20386;-41
2022/04/25 00:48:29;;;;;;;17.13;4.30;;;;;;;;;;5094889;28;20056;-41
2022/04/25 00:50:54;;;;;;;8.05;4.05;;;;;;;;;;5095222;28;20126;-41
2022/04/25 00:53:19;;;;;;;14.18;4.40;;;;;;;;;;5094924;28;20030;-41
2022/04/25 00:55:45;;;;;;;15.73;4.38;;;;;;;;;;5094885;28;20031;-42
2022/04/25 00:58:12;;;;;;;9.18;4.20;;;;;;;;;;5094738;28;20016;-41
2022/04/25 01:00:38;;;;;;;17.13;4.72;;;;;;;;;;5094674;28;20017;-42
2022/04/25 01:03:03;;;;;;;13.40;4.32;;;;;;;;;;5094545;28;20031;-41
2022/04/25 01:05:28;;;;;;;14.82;5.35;;;;;;;;;;5094580;28;20053;-41
2022/04/25 01:07:54;;;;;;;11.93;5.22;;;;;;;;;;5094734;28;20017;-41
2022/04/25 01:10:19;;;;;;;15.18;6.18;;;;;;;;;;5094661;28;20024;-41
2022/04/25 01:12:44;;;;;;;21.17;6.88;;;;;;;;;;5094468;28;20027;-41
2022/04/25 01:15:11;;;;;;;25.73;7.10;;;;;;;;;;5094493;28;20099;-41
2022/04/25 01:17:37;;;;;;;18.83;5.72;;;;;;;;;;5094066;28;20024;-41
2022/04/25 01:20:03;;;;;;;16.80;5.68;;;;;;;;;;5093435;28;20383;-41
2022/04/25 01:22:34;;;;;;;16.48;4.82;;;;;;;;;;5094684;28;20481;-41
2022/04/25 01:27:44;;;;;;;10.68;3.80;;;;;;;;;;5093929;28;20165;-41
2022/04/25 01:30:09;;;;;;;12.18;3.53;;;;;;;;;;5093627;28;20103;-41
2022/04/25 01:32:35;;;;;;;9.70;3.58;;;;;;;;;;5094339;28;20430;-41
2022/04/25 01:35:01;;;;;;;8.63;3.63;;;;;;;;;;5094165;28;20016;-41
2022/04/25 01:37:26;;;;;;;15.80;3.90;;;;;;;;;;5094007;28;20027;-41
2022/04/25 01:39:52;;;;;;;13.25;4.35;;;;;;;;;;5093969;28;20024;-41
2022/04/25 01:42:18;;;;;;;10.80;3.75;;;;;;;;;;5093813;28;20039;-41
2022/04/25 01:44:44;;;;;;;15.95;5.28;;;;;;;;;;5093303;28;20091;-41
2022/04/25 01:47:09;;;;;;;9.85;4.47;;;;;;;;;;5093988;28;20473;-41
2022/04/25 01:49:35;;;;;;;10.75;4.35;;;;;;;;;;5093900;28;20039;-41
2022/04/25 01:52:20;;;;;;;14.05;4.25;;;;;;;;;;5093972;28;20386;-41
2022/04/25 01:54:46;;;;;;;9.60;3.50;;;;;;;;;;5093632;28;20016;-41
2022/04/25 01:57:11;;;;;;;13.68;4.45;;;;;;;;;;5093388;28;20031;-41
2022/04/25 01:59:37;;;;;;;15.55;4.65;;;;;;;;;;5093477;28;20016;-41
2022/04/25 02:02:02;;;;;;;11.63;4.57;;;;;;;;;;5093779;28;20024;-41
2022/04/25 02:04:28;;;;;;;8.88;3.20;;;;;;;;;;5093552;28;20102;-41
2022/04/25 02:06:53;;;;;;;16.48;4.80;;;;;;;;;;5093501;28;20024;-41
2022/04/25 02:09:20;;;;;;;8.23;3.50;;;;;;;;;;5093361;28;20020;-41
2022/04/25 02:11:46;;;;;;;7.97;3.58;;;;;;;;;;5093436;28;20023;-41
2022/04/25 02:14:11;;;;;;;11.75;3.33;;;;;;;;;;5093362;28;20119;-41
2022/04/25 02:16:38;;;;;;;18.63;6.72;;;;;;;;;;5093181;28;20201;-41
2022/04/25 02:19:03;;;;;;;28.67;9.05;;;;;;;;;;5093563;28;20020;-41
2022/04/25 02:21:28;;;;;;;29.70;10.57;;;;;;;;;;5093207;28;20031;-41
2022/04/25 02:23:54;;;;;;;15.35;5.85;;;;;;;;;;5093254;28;20118;-41
2022/04/25 02:26:19;;;;;;;24.23;7.18;;;;;;;;;;5093157;28;20015;-41
2022/04/25 02:28:44;;;;;;;23.38;7.20;;;;;;;;;;5093077;28;20036;-41
2022/04/25 02:31:10;;;;;;;20.52;5.97;;;;;;;;;;5093245;28;20028;-41
2022/04/25 02:33:35;;;;;;;14.25;5.25;;;;;;;;;;5093202;28;20020;-41
2022/04/25 02:36:04;;;;;;;9.43;3.83;;;;;;;;;;5093209;28;20020;-41
2022/04/25 02:38:30;;;;;;;11.32;3.42;;;;;;;;;;5092942;28;20028;-41
2022/04/25 02:41:04;;;;;;;8.93;3.53;;;;;;;;;;5091469;28;20088;-41
2022/04/25 02:43:39;;;;;;;9.10;3.08;;;;;;;;;;5092721;28;20055;-41
2022/04/25 02:46:15;;;;;;;7.90;2.30;;;;;;;;;;5093224;28;20457;-41
2022/04/25 02:48:41;;;;;;;7.53;2.15;;;;;;;;;;5091747;28;20374;-41
2022/04/25 02:51:07;;;;;;;4.65;1.90;;;;;;;;;;5093136;28;20020;-41
2022/04/25 02:53:33;;;;;;;6.28;1.67;;;;;;;;;;5092705;28;20016;-41
2022/04/25 02:55:58;;;;;;;6.43;2.38;;;;;;;;;;5092774;28;20355;-41
2022/04/25 02:58:24;;;;;;;8.55;2.15;;;;;;;;;;5092921;28;20020;-41
2022/04/25 03:00:50;;;;;;;9.43;1.73;;;;;;;;;;5092832;28;20465;-41
2022/04/25 03:03:16;;;;;;;9.02;2.08;;;;;;;;;;5092919;28;20454;-41
2022/04/25 03:05:43;;;;;;;7.68;2.00;;;;;;;;;;5092655;28;20055;-41
2022/04/25 03:08:08;;;;;;;6.82;1.77;;;;;;;;;;5092660;28;20020;-41
2022/04/25 03:10:34;;;;;;;4.10;1.63;;;;;;;;;;5092904;28;20027;-41
2022/04/25 03:13:00;;;;;;;4.70;1.88;;;;;;;;;;5092777;28;20062;-41
2022/04/25 03:15:26;;;;;;;5.65;2.20;;;;;;;;;;5092492;28;20447;-41
2022/04/25 03:17:51;;;;;;;5.45;1.73;;;;;;;;;;5092685;28;20021;-41
2022/04/25 03:20:18;;;;;;;4.72;1.38;;;;;;;;;;5092780;28;20024;-41
2022/04/25 03:22:44;;;;;;;5.65;1.30;;;;;;;;;;5092654;28;20067;-41
2022/04/25 03:25:10;;;;;;;4.20;1.27;;;;;;;;;;5092500;28;20072;-41
2022/04/25 03:27:35;;;;;;;5.65;1.70;;;;;;;;;;5092802;28;20060;-41
2022/04/25 03:30:00;;;;;;;7.80;1.77;;;;;;;;;;5092425;28;20066;-41
2022/04/25 03:32:26;;;;;;;8.38;2.70;;;;;;;;;;5092497;28;20028;-41
2022/04/25 03:34:52;;;;;;;5.15;1.50;;;;;;;;;;5092544;28;20020;-41
2022/04/25 03:37:17;;;;;;;2.85;1.58;;;;;;;;;;5092516;28;20048;-41
2022/04/25 03:39:42;;;;;;;3.95;1.42;;;;;;;;;;5092193;28;20553;-41
2022/04/25 03:42:07;;;;;;;7.50;1.70;;;;;;;;;;5092865;28;20016;-41
2022/04/25 03:44:33;;;;;;;9.40;1.52;;;;;;;;;;5092295;28;20414;-41
2022/04/25 03:46:58;;;;;;;8.65;1.63;;;;;;;;;;5092344;28;20024;-41
2022/04/25 03:49:23;;;;;;;4.13;1.10;;;;;;;;;;5092491;28;20450;-41
2022/04/25 03:51:49;;;;;;;6.22;1.52;;;;;;;;;;5093618;28;20016;-41
2022/04/25 03:57:09;;;;;;;3.47;1.35;;;;;;;;;;5095917;28;20024;-41
2022/04/25 03:57:12;;;;;;;7.72;1.50;;;;;;;;;;5095836;28;20103;-41
2022/04/25 03:59:37;;;;;;;3.92;1.35;;;;;;;;;;5096075;28;20382;-41
2022/04/25 04:02:05;;;;;;;4.68;1.15;;;;;;;;;;5096408;28;20032;-41
2022/04/25 04:04:31;;;;;;;5.90;1.38;;;;;;;;;;5095751;28;20028;-41
2022/04/25 04:06:57;;;;;;;5.55;1.02;;;;;;;;;;5095597;28;20027;-41
2022/04/25 04:12:06;;;;;;;3.63;0.90;;;;;;;;;;5095515;28;20527;-40
2022/04/25 04:14:31;;;;;;;10.05;1.40;;;;;;;;;;5095918;28;20020;-41
2022/04/25 04:16:58;;;;;;;2.70;1.20;;;;;;;;;;5095574;28;20031;-41
2022/04/25 04:19:24;;;;;;;5.10;0.90;;;;;;;;;;5095390;28;20380;-41
2022/04/25 04:21:49;;;;;;;5.82;1.40;;;;;;;;;;5095682;28;20013;-41
2022/04/25 04:24:14;;;;;;;4.72;1.75;;;;;;;;;;5095403;28;20440;-41
2022/04/25 04:26:40;;;;;;;5.70;1.33;;;;;;;;;;5095584;28;20525;-41
2022/04/25 04:29:05;;;;;;;5.63;1.58;;;;;;;;;;5095397;28;20024;-41
2022/04/25 04:31:30;;;;;;;6.22;1.38;;;;;;;;;;5095269;28;20022;-41
2022/04/25 04:33:56;;;;;;;1.85;1.23;;;;;;;;;;5095130;28;20024;-41
2022/04/25 04:36:22;;;;;;;4.57;2.08;;;;;;;;;;5095141;28;20355;-41
2022/04/25 04:38:47;;;;;;;7.00;1.20;;;;;;;;;;5095206;28;20051;-41
2022/04/25 04:41:13;;;;;;;11.00;1.67;;;;;;;;;;5095240;28;20085;-41
2022/04/25 04:43:38;;;;;;;2.38;0.95;;;;;;;;;;5095022;28;20454;-41
2022/04/25 04:46:03;;;;;;;8.52;1.35;;;;;;;;;;5094997;28;20024;-41
2022/04/25 04:48:29;;;;;;;7.43;1.38;;;;;;;;;;5093956;28;20095;-41
2022/04/25 04:50:58;;;;;;;4.43;1.33;;;;;;;;;;5094822;28;20164;-41
2022/04/25 04:53:23;;;;;;;9.20;1.40;;;;;;;;;;5095084;28;20073;-41
2022/04/25 04:55:49;;;;;;;3.83;1.25;;;;;;;;;;5095363;28;20083;-41
2022/04/25 04:58:14;;;;;;;4.63;1.55;;;;;;;;;;5094687;28;20016;-41
2022/04/25 05:00:42;;;;;;;5.05;1.60;;;;;;;;;;5094677;28;20027;-40
2022/04/25 05:03:08;;;;;;;4.35;1.52;;;;;;;;;;5094591;28;20028;-41
2022/04/25 05:05:33;;;;;;;4.82;1.20;;;;;;;;;;5094394;28;20032;-41
2022/04/25 05:07:59;;;;;;;4.75;0.95;;;;;;;;;;5094620;28;20032;-41
2022/04/25 05:10:25;;;;;;;5.90;1.13;;;;;;;;;;5094839;28;20051;-41
2022/04/25 05:12:51;;;;;;;1.23;1.10;;;;;;;;;;5094116;28;20387;-41
2022/04/25 05:15:17;;;;;;;15.35;2.45;;;;;;;;;;5094424;28;20031;-41
2022/04/25 05:17:42;;;;;;;4.63;1.17;;;;;;;;;;5094218;28;20432;-41
2022/04/25 05:20:09;;;;;;;2.67;1.02;;;;;;;;;;5094620;28;20111;-41
2022/04/25 05:22:37;;;;;;;8.32;1.17;;;;;;;;;;5094324;28;20024;-40
2022/04/25 05:25:02;;;;;;;4.22;1.65;;;;;;;;;;5094361;28;20042;-40
2022/04/25 05:27:28;;;;;;;6.25;1.50;;;;;;;;;;5094189;28;20099;-40
2022/04/25 05:29:53;;;;;;;7.55;1.40;;;;;;;;;;5094121;28;20459;-39
2022/04/25 05:32:18;;;;;;;8.33;0.93;;;;;;;;;;5094264;28;20024;-39
2022/04/25 05:34:43;;;;;;;4.78;1.65;;;;;;;;;;5093887;28;20293;-40
2022/04/25 05:37:09;;;;;;;8.68;1.73;;;;;;;;;;5094442;28;20479;-39
2022/04/25 05:39:35;;;;;;;6.43;2.00;;;;;;;;;;5090551;28;20016;-40
2022/04/25 05:42:01;;;;;;;13.60;1.88;;;;;;;;;;5092578;28;20073;-39
2022/04/25 05:44:27;;;;;;;4.00;1.50;;;;;;;;;;5090037;28;20052;-40
2022/04/25 05:46:52;;;;;;;6.07;1.88;;;;;;;;;;5085528;28;20028;-40
2022/04/25 05:52:03;;;;;;;4.28;1.80;;;;;;;;;;5076317;28;20027;-42
2022/04/25 05:54:28;;;;;;;2.90;1.60;;;;;;;;;;5080310;28;20028;-42
2022/04/25 05:56:54;;;;;;;7.30;1.60;;;;;;;;;;5073067;28;20031;-41
2022/04/25 05:59:19;;;;;;;2.67;0.95;;;;;;;;;;5086780;28;20137;-41
2022/04/25 06:01:45;;;;;;;4.47;1.20;;;;;;;;;;5081185;28;20024;-42
2022/04/25 06:04:11;;;;;;;3.72;1.15;;;;;;;;;;5079024;28;20051;-39
2022/04/25 06:06:36;;;;;;;5.78;1.15;;;;;;;;;;5081953;28;20028;-38
2022/04/25 06:09:02;;;;;;;2.72;1.08;;;;;;;;;;5078696;28;20012;-40
2022/04/25 06:11:28;;;;;;;5.15;1.10;;;;;;;;;;5082608;28;20017;-39
2022/04/25 06:13:57;;;;;;;2.50;0.82;;;;;;;;;;5087576;28;20534;-39
2022/04/25 06:16:22;;;;;;;1.88;0.90;;;;;;;;;;5078917;28;20039;-40
2022/04/25 06:18:48;;;;;;;2.17;0.90;;;;;;;;;;5079441;28;20028;-39
2022/04/25 06:21:13;;;;;;;2.72;0.70;;;;;;;;;;5083397;28;20023;-39
2022/04/25 06:23:38;;;;;;;11.85;1.52;;;;;;;;;;5078380;28;20095;-39
2022/04/25 06:26:04;;;;;;;5.15;0.80;;;;;;;;;;5082168;28;20040;-39
2022/04/25 06:28:29;;;;;;;1.80;1.02;;;;;;;;;;5082504;28;20023;-39
2022/04/25 06:30:54;;;;;;;4.80;1.20;;;;;;;;;;5084303;28;20481;-42
2022/04/25 06:33:20;;;;;;;4.25;1.48;;;;;;;;;;5076994;28;20034;-41
2022/04/25 06:35:46;;;;;;;3.38;0.90;;;;;;;;;;5076107;28;20102;-39
2022/04/25 06:38:11;;;;;;;2.03;1.10;;;;;;;;;;5080555;28;20048;-45
2022/04/25 06:40:39;;;;;;;2.83;0.95;;;;;;;;;;5078705;28;20097;-42
2022/04/25 06:43:05;;;;;;;3.75;1.08;;;;;;;;;;5076122;28;20024;-39
2022/04/25 06:45:32;;;;;;;1.67;0.60;;;;;;;;;;5080995;28;20624;-42
2022/04/25 06:47:58;;;;;;;2.85;0.75;;;;;;;;;;5079893;28;20089;-41
2022/04/25 06:50:23;;;;;;;3.83;0.90;;;;;;;;;;5078812;28;20016;-42
2022/04/25 06:52:48;;;;;;;4.75;1.25;;;;;;;;;;5080769;28;20020;-39
2022/04/25 06:55:14;;;;;;;1.90;0.85;;;;;;;;;;5083640;28;20099;-40
2022/04/25 06:57:39;;;;;;;8.65;1.35;;;;;;;;;;5077250;28;20121;-40
2022/04/25 07:00:08;;;;;;;3.72;0.85;;;;;;;;;;5083179;28;20016;-45
2022/04/25 07:02:34;;;;;;;3.20;0.80;;;;;;;;;;5076566;28;20029;-42
2022/04/25 07:04:59;;;;;;;4.80;0.60;;;;;;;;;;5082523;28;20097;-42
2022/04/25 07:07:25;;;;;;;11.25;1.17;;;;;;;;;;5080703;28;20475;-43
2022/04/25 07:09:50;;;;;;;6.35;1.13;;;;;;;;;;5080326;28;20106;-43
2022/04/25 07:12:16;;;;;;;3.75;0.98;;;;;;;;;;5073210;28;20082;-40
2022/04/25 07:14:41;;;;;;;5.95;1.00;;;;;;;;;;5079692;28;20020;-40
2022/04/25 07:17:06;;;;;;;6.03;0.85;;;;;;;;;;5080934;28;20501;-40
2022/04/25 07:19:32;;;;;;;6.95;1.98;;;;;;;;;;5079572;28;20029;-39
2022/04/25 07:30:09;;;;;;;2.33;0.70;;;;;;;;;;5083999;28;20106;-42
2022/04/25 07:32:39;;;;;;;5.05;1.00;;;;;;;;;;5082021;28;20474;-38
2022/04/25 07:35:06;;;;;;;4.45;1.30;;;;;;;;;;5080197;28;20025;-39
2022/04/25 07:37:33;;;;;;;12.43;1.52;;;;;;;;;;5077899;28;20030;-40
2022/04/25 07:39:58;;;;;;;2.28;0.80;;;;;;;;;;5081220;28;20125;-39
2022/04/25 07:42:24;;;;;;;2.50;0.80;;;;;;;;;;5080887;28;20059;-37
2022/04/25 07:44:49;;;;;;;4.80;0.73;;;;;;;;;;5082513;28;20056;-37
2022/04/25 07:47:14;;;;;;;5.10;0.80;;;;;;;;;;5083140;28;20026;-40
2022/04/25 07:49:40;;;;;;;6.30;0.98;;;;;;;;;;5087753;28;20257;-38
2022/04/25 07:52:06;;;;;;;4.47;0.90;;;;;;;;;;5087412;28;20024;-39
2022/04/25 07:54:31;;;;;;;3.38;1.00;;;;;;;;;;5085503;28;20712;-39
2022/04/25 07:56:56;;;;;;;6.97;1.20;;;;;;;;;;5090180;28;20107;-39
2022/04/25 07:59:22;;;;;;;2.03;0.93;;;;;;;;;;5093626;28;20024;-41
2022/04/25 08:01:47;;;;;;;5.50;0.80;;;;;;;;;;5087548;28;20496;-40
2022/04/25 08:04:13;;;;;;;4.20;0.70;;;;;;;;;;5079619;28;20032;-39
2022/04/25 08:06:38;;;;;;;4.50;0.98;;;;;;;;;;5081895;28;20032;-39
2022/04/25 08:09:04;;;;;;;1.25;0.50;;;;;;;;;;5087059;28;20024;-39
2022/04/25 08:11:29;;;;;;;1.98;0.98;;;;;;;;;;5074182;28;20441;-42
2022/04/25 08:19:22;;;;;;;2.30;0.68;;;;;;;;;;5090684;28;20070;-40
2022/04/25 08:21:48;;;;;;;2.30;1.10;;;;;;;;;;5081948;28;20025;-39
2022/04/25 08:24:14;;;;;;;3.15;0.90;;;;;;;;;;5084369;28;20538;-39
2022/04/25 08:26:39;;;;;;;14.77;1.58;;;;;;;;;;5082387;28;20077;-40
2022/04/25 08:29:05;;;;;;;2.88;1.38;;;;;;;;;;5088011;28;20032;-39
2022/04/25 08:31:34;;;;;;;2.03;0.60;;;;;;;;;;5094221;28;20020;-42
2022/04/25 08:34:01;;;;;;;3.75;0.85;;;;;;;;;;5094588;28;20055;-40
2022/04/25 08:36:27;;;;;;;1.67;0.55;;;;;;;;;;5094108;28;20019;-39
2022/04/25 08:38:52;;;;;;;1.38;0.38;;;;;;;;;;5093524;28;20375;-39
2022/04/25 08:41:21;;;;;;;5.13;0.80;;;;;;;;;;5094650;28;20145;-39
2022/04/25 08:43:51;;;;;;;2.40;0.40;;;;;;;;;;5086746;28;20534;-41
2022/04/25 08:46:16;;;;;;;0.75;0.32;;;;;;;;;;5084895;28;20019;-36
2022/04/25 08:48:43;;;;;;;2.38;0.50;;;;;;;;;;5084966;28;20501;-37
2022/04/25 08:51:09;;;;;;;3.15;0.88;;;;;;;;;;5094244;28;20074;-38
2022/04/25 08:53:37;;;;;;;1.48;0.45;;;;;;;;;;5093984;28;20044;-37
2022/04/25 08:56:03;;;;;;;2.35;0.70;;;;;;;;;;5092933;28;20027;-38
2022/04/25 08:58:31;;;;;;;1.83;0.60;;;;;;;;;;5092639;28;20019;-39
2022/04/25 09:00:57;;;;;;;5.25;0.85;;;;;;;;;;5084577;28;20368;-43
2022/04/25 09:03:24;;;;;;;2.08;0.77;;;;;;;;;;5074929;28;20032;-46
2022/04/25 09:05:50;;;;;;;2.22;0.57;;;;;;;;;;5093239;28;20497;-40
2022/04/25 09:08:15;;;;;;;2.20;0.57;;;;;;;;;;5094036;28;20021;-45
2022/04/25 09:10:42;;;;;;;4.75;1.20;;;;;;;;;;5085492;28;20043;-42
2022/04/25 09:13:09;;;;;;;1.90;0.60;;;;;;;;;;5084109;28;20405;-40
2022/04/25 09:15:34;;;;;;;3.47;0.85;;;;;;;;;;5084311;28;20028;-44
2022/04/25 09:18:00;;;;;;;5.00;0.90;;;;;;;;;;5075263;28;20473;-41
2022/04/25 09:20:26;;;;;;;1.90;0.65;;;;;;;;;;5076108;28;20035;-46
2022/04/25 09:22:52;;;;;;;2.28;0.80;;;;;;;;;;5079180;28;20497;-42
2022/04/25 09:25:18;;;;;;;3.50;0.70;;;;;;;;;;5083492;28;20028;-41
2022/04/25 09:27:43;;;;;;;1.95;0.60;;;;;;;;;;5085171;28;20076;-40
2022/04/25 09:30:18;;;;;;;1.85;0.70;;;;;;;;;;5079911;28;20394;-43
2022/04/25 09:32:47;;;;;;;2.20;0.73;;;;;;;;;;5082304;28;20466;-39
2022/04/25 09:35:27;;;;;;;2.08;0.95;;;;;;;;;;5089866;28;20115;-40
2022/04/25 09:37:52;;;;;;;3.53;0.70;;;;;;;;;;5084609;28;20028;-48
2022/04/25 09:40:18;;;;;;;6.68;1.42;;;;;;;;;;5091938;28;20103;-43
2022/04/25 09:42:44;;;;;;;2.28;0.70;;;;;;;;;;5082875;28;20103;-45
2022/04/25 09:45:09;;;;;;;2.63;0.68;;;;;;;;;;5089414;28;20185;-50
2022/04/25 09:47:36;;;;;;;2.28;0.60;;;;;;;;;;5081693;28;20062;-44
2022/04/25 09:50:06;;;;;;;1.10;0.47;;;;;;;;;;5084591;28;20023;-47
2022/04/25 09:52:32;;;;;;;2.00;0.68;;;;;;;;;;5091867;28;20016;-47
2022/04/25 09:55:14;;;;;;;3.08;0.70;;;;;;;;;;5092866;28;20020;-42
2022/04/25 09:57:41;;;;;;;1.90;0.73;;;;;;;;;;5092438;28;20031;-46
2022/04/25 10:00:06;;;;;;;3.70;0.80;;;;;;;;;;5086286;28;20502;-45
2022/04/25 10:02:32;;;;;;;3.17;0.68;;;;;;;;;;5075605;28;20036;-49
2022/04/25 10:04:57;;;;;;;4.72;0.80;;;;;;;;;;5079565;28;20371;-45
2022/04/25 10:07:24;;;;;;;4.57;1.38;;;;;;;;;;5091872;28;20028;-46
2022/04/25 10:09:52;;;;;;;1.75;0.60;;;;;;;;;;5084661;28;20020;-44
2022/04/25 10:12:17;;;;;;;7.20;1.00;;;;;;;;;;5083733;28;20393;-46
2022/04/25 10:14:43;;;;;;;3.10;0.98;;;;;;;;;;5090831;28;20027;-44
2022/04/25 10:17:09;;;;;;;1.75;0.82;;;;;;;;;;5092458;28;20016;-48
2022/04/25 10:19:35;;;;;;;0.55;0.50;;;;;;;;;;5088320;28;20017;-46
2022/04/25 10:22:01;;;;;;;1.58;0.70;;;;;;;;;;5081011;28;20528;-45
2022/04/25 10:24:26;;;;;;;3.53;1.38;;;;;;;;;;5084528;28;20036;-43
2022/04/25 10:26:52;;;;;;;2.45;0.80;;;;;;;;;;5085389;28;20032;-49
2022/04/25 10:29:26;;;;;;;2.47;0.90;;;;;;;;;;5085412;28;20551;-48
2022/04/25 10:31:56;;;;;;;0.65;0.60;;;;;;;;;;5081577;28;20074;-48
2022/04/25 10:34:43;;;;;;;3.03;1.20;;;;;;;;;;5085690;28;20102;-45
2022/04/25 10:37:27;;;;;;;3.05;0.90;;;;;;;;;;5080384;28;20027;-47
2022/04/25 10:39:52;;;;;;;3.53;1.00;;;;;;;;;;5091814;28;20039;-47
2022/04/25 10:45:02;;;;;;;2.25;0.68;;;;;;;;;;5091489;28;20602;-47
2022/04/25 10:47:28;;;;;;;2.40;0.80;;;;;;;;;;5078123;28;20032;-44
2022/04/25 10:49:55;;;;;;;8.45;1.00;;;;;;;;;;5077655;28;20378;-45
2022/04/25 10:52:54;;;;;;;3.13;0.80;;;;;;;;;;5075825;28;20032;-44
2022/04/25 10:55:21;;;;;;;1.02;0.60;;;;;;;;;;5079427;28;20115;-44
2022/04/25 10:58:07;;;;;;;1.70;0.80;;;;;;;;;;5079201;28;20043;-44
2022/04/25 11:00:32;;;;;;;2.15;0.93;;;;;;;;;;5074483;28;20467;-45
2022/04/25 11:03:07;;;;;;;3.42;0.80;;;;;;;;;;5087985;28;20063;-41
2022/04/25 11:05:33;;;;;;;0.80;0.47;;;;;;;;;;5084815;28;20081;-46
2022/04/25 11:08:18;;;;;;;2.33;0.70;;;;;;;;;;5086539;28;20115;-45
2022/04/25 11:10:47;;;;;;;3.20;1.10;;;;;;;;;;5083405;28;20020;-50
2022/04/25 11:13:12;;;;;;;1.48;0.80;;;;;;;;;;5083771;28;20042;-45
2022/04/25 11:15:39;;;;;;;3.08;0.80;;;;;;;;;;5074518;28;20072;-46
2022/04/25 11:18:27;;;;;;;1.15;0.50;;;;;;;;;;5082300;28;20047;-43
2022/04/25 11:20:57;;;;;;;0.93;0.65;;;;;;;;;;5090886;28;20062;-42
2022/04/25 11:23:23;;;;;;;5.13;1.00;;;;;;;;;;5086884;28;20042;-41
2022/04/25 11:25:48;;;;;;;4.00;0.75;;;;;;;;;;5089531;28;20039;-43
2022/04/25 11:28:14;;;;;;;2.10;0.57;;;;;;;;;;5089687;28;20455;-41
2022/04/25 11:30:40;;;;;;;1.60;0.55;;;;;;;;;;5081913;28;20032;-42
2022/04/25 11:33:09;;;;;;;2.75;0.77;;;;;;;;;;5090543;28;20031;-42
2022/04/25 11:35:35;;;;;;;2.92;0.95;;;;;;;;;;5087205;28;20021;-44
2022/04/25 11:38:01;;;;;;;1.80;0.80;;;;;;;;;;5095688;28;20035;-47
2022/04/25 11:40:26;;;;;;;2.55;1.08;;;;;;;;;;5085756;28;20029;-45
2022/04/25 11:42:52;;;;;;;0.88;0.50;;;;;;;;;;5081500;28;20024;-41
2022/04/25 11:45:18;;;;;;;2.47;0.90;;;;;;;;;;5092552;28;20056;-43
2022/04/25 11:47:43;;;;;;;4.20;0.85;;;;;;;;;;5095403;28;20024;-46
2022/04/25 11:50:12;;;;;;;3.20;0.60;;;;;;;;;;5094892;28;20382;-47
2022/04/25 11:52:51;;;;;;;1.33;0.52;;;;;;;;;;5088429;28;20021;-44
2022/04/25 11:55:17;;;;;;;0.70;0.68;;;;;;;;;;5079495;28;20039;-44
2022/04/25 11:57:45;;;;;;;1.30;0.75;;;;;;;;;;5083088;28;20031;-45
2022/04/25 12:00:17;;;;;;;1.10;0.50;;;;;;;;;;5084557;28;20032;-44
2022/04/25 12:02:43;;;;;;;4.38;1.55;;;;;;;;;;5084493;28;20027;-44
2022/04/25 12:05:09;;;;;;;3.25;1.35;;;;;;;;;;5085738;28;20037;-44
2022/04/25 12:07:35;;;;;;;1.25;0.82;;;;;;;;;;5080437;28;20485;-48
2022/04/25 12:15:34;;;;;;;4.45;1.40;;;;;;;;;;5083802;28;20035;-46
2022/04/25 12:18:19;;;;;;;2.38;1.05;;;;;;;;;;5077603;28;20451;-53
2022/04/25 12:20:47;;;;;;;3.05;1.00;;;;;;;;;;5079901;28;20020;-42
2022/04/25 12:23:41;;;;;;;3.03;1.20;;;;;;;;;;5093338;28;20028;-40
2022/04/25 12:26:14;;;;;;;6.20;1.20;;;;;;;;;;5083903;28;20514;-43
2022/04/25 12:28:48;;;;;;;3.78;1.30;;;;;;;;;;5086364;28;20070;-40
2022/04/25 12:31:15;;;;;;;3.53;0.90;;;;;;;;;;5083755;28;20029;-43
2022/04/25 12:33:41;;;;;;;2.50;0.98;;;;;;;;;;5081066;28;20028;-40
2022/04/25 12:36:10;;;;;;;1.42;1.10;;;;;;;;;;5091225;28;20020;-40
2022/04/25 12:38:39;;;;;;;2.25;1.23;;;;;;;;;;5085512;28;20441;-40
2022/04/25 12:41:05;;;;;;;3.05;0.98;;;;;;;;;;5085552;28;20035;-42
2022/04/25 12:43:40;;;;;;;2.80;1.10;;;;;;;;;;5085996;28;20059;-40
2022/04/25 12:46:08;;;;;;;2.85;1.08;;;;;;;;;;5077045;28;20055;-40
2022/04/25 12:48:52;;;;;;;2.10;1.00;;;;;;;;;;5085786;28;20394;-40
2022/04/25 12:51:38;;;;;;;0.90;0.70;;;;;;;;;;5078812;28;20043;-41
2022/04/25 12:54:04;;;;;;;1.27;0.77;;;;;;;;;;5090196;28;20386;-40
2022/04/25 12:56:34;;;;;;;2.88;0.90;;;;;;;;;;5093883;28;20016;-44
2022/04/25 12:58:59;;;;;;;3.78;0.95;;;;;;;;;;5081285;28;20085;-40
2022/04/25 13:01:37;;;;;;;1.33;1.10;;;;;;;;;;5089210;28;20017;-41
2022/04/25 13:04:09;;;;;;;3.55;1.10;;;;;;;;;;5086319;28;20074;-41
2022/04/25 13:06:36;;;;;;;3.13;1.60;;;;;;;;;;5077019;28;20094;-40
2022/04/25 13:09:02;;;;;;;5.35;1.00;;;;;;;;;;5077285;28;20039;-39
2022/04/25 13:11:28;;;;;;;1.52;0.80;;;;;;;;;;5075314;28;20024;-40
2022/04/25 13:13:53;;;;;;;1.38;1.00;;;;;;;;;;5079098;28;20025;-40
2022/04/25 13:16:18;;;;;;;2.15;0.85;;;;;;;;;;5084849;28;20020;-40
2022/04/25 13:18:44;;;;;;;1.52;0.50;;;;;;;;;;5075235;28;20086;-40
2022/04/25 13:21:13;;;;;;;2.40;0.70;;;;;;;;;;5086264;28;20154;-40
2022/04/25 13:23:39;;;;;;;2.50;0.80;;;;;;;;;;5085599;28;20065;-41
2022/04/25 13:26:04;;;;;;;1.95;0.95;;;;;;;;;;5079142;28;20424;-40
2022/04/25 13:28:29;;;;;;;8.35;1.15;;;;;;;;;;5079687;28;20031;-43
2022/04/25 13:30:55;;;;;;;1.67;0.70;;;;;;;;;;5082134;28;20024;-40
2022/04/25 13:33:20;;;;;;;8.05;1.02;;;;;;;;;;5081400;28;20421;-41
2022/04/25 13:35:46;;;;;;;2.00;0.77;;;;;;;;;;5091151;28;20024;-39
2022/04/25 13:38:13;;;;;;;3.53;0.80;;;;;;;;;;5072753;28;20153;-40
2022/04/25 13:40:39;;;;;;;7.88;1.20;;;;;;;;;;5087461;28;20036;-39
2022/04/25 13:43:05;;;;;;;13.75;2.22;;;;;;;;;;5090157;28;20043;-39
2022/04/25 13:45:30;;;;;;;0.73;0.52;;;;;;;;;;5076382;28;20511;-39
2022/04/25 13:47:55;;;;;;;79.97;11.27;;;;;;;;;;5077638;28;20024;-42
2022/04/25 13:50:21;;;;;;;245.60;41.88;;;;;;;;;;5081251;28;20059;-39
2022/04/25 13:52:46;;;;;;;1.25;0.57;;;;;;;;;;5081389;28;20383;-40
2022/04/25 13:55:12;;;;;;;11.13;1.98;;;;;;;;;;5082559;28;20044;-38
2022/04/25 13:57:37;;;;;;;2.17;0.82;;;;;;;;;;5075565;28;20028;-40
2022/04/25 14:00:03;;;;;;;9.10;0.95;;;;;;;;;;5080486;28;20121;-39
2022/04/25 14:05:12;;;;;;;10.00;1.63;;;;;;;;;;5080426;28;20077;-39
2022/04/25 14:07:37;;;;;;;30.30;11.48;;;;;;;;;;5078887;28;20106;-41
2022/04/25 14:10:04;;;;;;;3.13;1.10;;;;;;;;;;5087557;28;20083;-40
2022/04/25 14:12:30;;;;;;;3.65;0.52;;;;;;;;;;5090246;28;20080;-41
2022/04/25 14:14:55;;;;;;;0.80;0.40;;;;;;;;;;5081338;28;20023;-40
2022/04/25 14:17:20;;;;;;;4.18;0.45;;;;;;;;;;5091815;28;20024;-41
2022/04/25 14:19:46;;;;;;;0.45;0.40;;;;;;;;;;5075747;28;20024;-40
2022/04/25 14:22:12;;;;;;;1.55;0.50;;;;;;;;;;5076420;28;20122;-41
2022/04/25 14:24:38;;;;;;;1.60;0.60;;;;;;;;;;5079648;28;20410;-41
2022/04/25 14:27:03;;;;;;;2.20;0.30;;;;;;;;;;5077822;28;20027;-41
2022/04/25 14:29:29;;;;;;;1.63;0.57;;;;;;;;;;5083720;28;20109;-44
2022/04/25 14:31:54;;;;;;;4.10;1.30;;;;;;;;;;5072241;28;20506;-41
2022/04/25 14:34:20;;;;;;;1.20;0.57;;;;;;;;;;5077842;28;20043;-44
2022/04/25 14:36:45;;;;;;;0.63;0.45;;;;;;;;;;5071210;28;20051;-40
2022/04/25 14:39:10;;;;;;;1.33;0.50;;;;;;;;;;5075590;28;20051;-40
2022/04/25 14:41:36;;;;;;;2.42;0.57;;;;;;;;;;5079832;28;20031;-40
2022/04/25 14:44:01;;;;;;;1.80;1.00;;;;;;;;;;5084406;28;20056;-40
2022/04/25 14:46:26;;;;;;;2.00;0.70;;;;;;;;;;5076897;28;20293;-41
2022/04/25 14:48:52;;;;;;;0.40;0.40;;;;;;;;;;5077688;28;20078;-40
2022/04/25 14:56:45;;;;;;;4.13;0.68;;;;;;;;;;5077776;28;20021;-40
2022/04/25 14:59:10;;;;;;;0.65;0.50;;;;;;;;;;5072951;28;20066;-42
2022/04/25 15:01:36;;;;;;;0.50;0.40;;;;;;;;;;5091975;28;20024;-40
2022/04/25 15:04:04;;;;;;;2.50;0.80;;;;;;;;;;5092306;28;20458;-40
2022/04/25 15:06:30;;;;;;;1.00;0.50;;;;;;;;;;5084102;28;20040;-40
2022/04/25 15:08:55;;;;;;;2.70;0.60;;;;;;;;;;5072288;28;20024;-40
2022/04/25 15:11:20;;;;;;;2.23;0.40;;;;;;;;;;5072789;28;20245;-40
2022/04/25 15:13:46;;;;;;;3.83;0.30;;;;;;;;;;5072504;28;20645;-40
2022/04/25 15:16:11;;;;;;;1.10;0.63;;;;;;;;;;5072522;28;20025;-40